Time;durP1;ratioP1;P1;durP2;ratioP2;P2;SDS_P1;SDS_P2;PMS_P1;PMS_P2;Temp;Humidity;BMP_temperature;BMP_pressure;BME280_temperature;BME280_humidity;BME280_pressure;Samples;Min_cycle;Max_cycle;Signal;HPM_P1;HPM_P2
2021/01/10 00:00:18;;;;;;;2.42;2.28;;;3.00;99.90;;;;;;4954367;29;20234;-79
2021/01/10 00:02:44;;;;;;;2.10;2.00;;;3.10;99.90;;;;;;4954452;29;20189;-76
2021/01/10 00:05:13;;;;;;;1.52;1.38;;;3.10;99.90;;;;;;4954367;28;20187;-75
2021/01/10 00:07:38;;;;;;;4.20;2.90;;;3.00;99.90;;;;;;4955681;28;20202;-75
2021/01/10 00:10:11;;;;;;;1.27;1.27;;;3.20;99.90;;;;;;4940683;29;20504;-76
2021/01/10 00:12:37;;;;;;;2.15;1.88;;;3.30;99.90;;;;;;4957913;29;20162;-75
2021/01/10 00:15:11;;;;;;;2.42;2.22;;;3.20;99.90;;;;;;4957726;28;20191;-75
2021/01/10 00:17:37;;;;;;;2.78;2.58;;;3.10;99.90;;;;;;4956550;29;20260;-76
2021/01/10 00:20:06;;;;;;;10.88;3.95;;;2.90;99.90;;;;;;4940489;29;20176;-74
2021/01/10 00:22:31;;;;;;;1.98;1.88;;;2.50;99.90;;;;;;4957654;29;20165;-76
2021/01/10 00:24:57;;;;;;;2.90;2.70;;;2.50;99.90;;;;;;4940412;29;20194;-75
2021/01/10 00:27:23;;;;;;;1.67;1.63;;;2.80;99.90;;;;;;4957460;29;20674;-75
2021/01/10 00:29:52;;;;;;;1.35;1.33;;;3.00;99.90;;;;;;4957731;29;20638;-76
2021/01/10 00:32:19;;;;;;;5.85;1.98;;;3.20;99.90;;;;;;4957785;29;20205;-75
2021/01/10 00:34:44;;;;;;;2.13;2.03;;;3.00;99.90;;;;;;4957357;28;20190;-75
2021/01/10 00:37:19;;;;;;;2.03;1.83;;;3.00;99.90;;;;;;4957373;29;20173;-75
2021/01/10 00:39:45;;;;;;;0.80;0.80;;;2.90;99.90;;;;;;4957483;29;20163;-74
2021/01/10 00:42:12;;;;;;;2.45;2.20;;;2.70;99.90;;;;;;4957254;29;20181;-75
2021/01/10 00:44:39;;;;;;;1.75;1.65;;;2.60;99.90;;;;;;4957253;28;20651;-75
2021/01/10 00:47:05;;;;;;;2.22;2.03;;;2.90;99.90;;;;;;4957160;29;20202;-75
2021/01/10 00:49:31;;;;;;;0.80;0.80;;;2.90;99.90;;;;;;4957220;29;20175;-75
2021/01/10 00:51:57;;;;;;;2.30;1.35;;;3.00;99.90;;;;;;4957155;29;20167;-80
2021/01/10 00:54:22;;;;;;;3.05;2.20;;;3.10;99.90;;;;;;4939786;28;20561;-75
2021/01/10 00:56:48;;;;;;;2.08;1.92;;;3.10;99.90;;;;;;4957055;29;20198;-76
2021/01/10 00:59:14;;;;;;;1.70;1.60;;;3.20;99.90;;;;;;4957038;29;20264;-74
2021/01/10 01:01:40;;;;;;;10.18;2.33;;;3.10;99.90;;;;;;4956988;29;20214;-76
2021/01/10 01:04:06;;;;;;;2.35;1.63;;;3.20;99.90;;;;;;4971719;23;20293;-76
2021/01/10 01:06:32;;;;;;;14.40;3.10;;;3.40;99.90;;;;;;4956692;29;20241;-76
2021/01/10 01:08:57;;;;;;;2.63;2.43;;;3.50;99.90;;;;;;4956953;29;20720;-77
2021/01/10 01:11:31;;;;;;;1.38;1.27;;;3.30;99.90;;;;;;4956885;29;20173;-75
2021/01/10 01:13:57;;;;;;;2.57;2.20;;;3.40;99.90;;;;;;4956851;29;20167;-75
2021/01/10 01:16:23;;;;;;;2.10;1.92;;;3.40;99.90;;;;;;4956730;28;20192;-75
2021/01/10 01:18:48;;;;;;;2.67;2.58;;;3.20;99.90;;;;;;4956187;28;20517;-74
2021/01/10 01:21:19;;;;;;;2.33;2.22;;;3.20;99.90;;;;;;4956743;29;20209;-75
2021/01/10 01:23:49;;;;;;;1.15;1.15;;;3.00;99.90;;;;;;4956583;29;20175;-78
2021/01/10 01:26:22;;;;;;;0.98;0.93;;;2.90;99.90;;;;;;4956520;28;20723;-76
2021/01/10 01:28:49;;;;;;;4.13;2.97;;;2.70;99.90;;;;;;4956546;29;20222;-75
2021/01/10 01:31:20;;;;;;;3.50;2.40;;;2.60;99.90;;;;;;4956273;29;20491;-75
2021/01/10 01:33:46;;;;;;;1.17;1.17;;;2.80;99.90;;;;;;4956521;29;20189;-75
2021/01/10 01:36:29;;;;;;;3.13;2.70;;;2.90;99.90;;;;;;4956212;28;20182;-75
2021/01/10 01:38:59;;;;;;;1.27;1.27;;;2.70;99.90;;;;;;4956332;29;20166;-75
2021/01/10 01:41:25;;;;;;;1.75;1.65;;;2.40;99.90;;;;;;4956250;29;20549;-75
2021/01/10 01:43:51;;;;;;;0.77;0.77;;;2.60;99.90;;;;;;4956236;29;20260;-75
2021/01/10 01:46:29;;;;;;;1.60;1.50;;;2.60;99.90;;;;;;4956024;28;20195;-75
2021/01/10 01:48:56;;;;;;;1.38;0.80;;;2.60;99.90;;;;;;4956202;29;20171;-76
2021/01/10 01:51:22;;;;;;;1.48;1.48;;;2.70;99.90;;;;;;4955965;29;20252;-75
2021/01/10 01:53:48;;;;;;;0.98;0.98;;;2.90;99.90;;;;;;4956047;29;20227;-76
2021/01/10 01:56:13;;;;;;;1.63;1.53;;;2.70;99.90;;;;;;4955858;28;20189;-74
2021/01/10 01:58:57;;;;;;;1.95;1.85;;;2.60;99.90;;;;;;4938768;29;20611;-76
2021/01/10 02:01:29;;;;;;;0.95;0.95;;;2.60;99.90;;;;;;4955873;29;20253;-75
2021/01/10 02:03:59;;;;;;;1.70;1.60;;;2.90;99.90;;;;;;4955838;29;20222;-75
2021/01/10 02:06:30;;;;;;;1.67;1.58;;;3.00;99.90;;;;;;4955565;28;20540;-74
2021/01/10 02:09:04;;;;;;;2.10;1.58;;;2.90;99.90;;;;;;4955817;29;20159;-74
2021/01/10 02:11:33;;;;;;;1.75;1.48;;;2.90;99.90;;;;;;4938468;29;20167;-77
2021/01/10 02:14:04;;;;;;;1.35;1.25;;;2.90;99.90;;;;;;4955813;29;20221;-76
2021/01/10 02:16:30;;;;;;;3.60;2.47;;;3.10;99.90;;;;;;4955552;29;20198;-78
2021/01/10 02:18:57;;;;;;;1.08;1.08;;;3.20;99.90;;;;;;4955676;29;20163;-75
2021/01/10 02:21:24;;;;;;;4.85;2.17;;;3.40;99.90;;;;;;4955547;29;20178;-77
2021/01/10 02:23:53;;;;;;;1.20;1.20;;;3.40;99.90;;;;;;4954212;29;20170;-76
2021/01/10 02:26:19;;;;;;;1.98;1.50;;;3.50;99.90;;;;;;4955457;28;20194;-75
2021/01/10 02:28:45;;;;;;;1.13;1.10;;;3.50;99.90;;;;;;4938288;29;20778;-78
2021/01/10 02:31:13;;;;;;;3.55;3.25;;;3.40;99.90;;;;;;4954601;28;20243;-76
2021/01/10 02:33:51;;;;;;;1.90;1.80;;;3.10;99.90;;;;;;4955271;29;20234;-75
2021/01/10 02:36:38;;;;;;;3.53;1.90;;;3.30;99.90;;;;;;4955311;28;20689;-77
2021/01/10 02:39:15;;;;;;;8.25;1.95;;;2.90;99.90;;;;;;4955257;29;20194;-77
2021/01/10 02:41:53;;;;;;;4.68;3.03;;;2.70;99.90;;;;;;4955408;29;20658;-74
2021/01/10 02:44:36;;;;;;;1.25;1.20;;;2.80;99.90;;;;;;4955136;28;20188;-76
2021/01/10 02:47:02;;;;;;;1.75;1.65;;;2.90;99.90;;;;;;4955026;29;20257;-75
2021/01/10 02:49:27;;;;;;;5.38;2.70;;;3.10;99.90;;;;;;4955207;29;20159;-75
2021/01/10 02:51:53;;;;;;;2.97;2.47;;;3.20;99.90;;;;;;4955201;29;20242;-75
2021/01/10 02:54:19;;;;;;;2.55;2.33;;;3.10;99.90;;;;;;4954986;28;20201;-76
2021/01/10 02:56:52;;;;;;;0.90;0.90;;;3.00;99.90;;;;;;4955076;29;20174;-75
2021/01/10 02:59:24;;;;;;;2.25;2.10;;;3.10;99.90;;;;;;4955024;29;20213;-75
2021/01/10 03:01:53;;;;;;;1.98;1.88;;;3.10;99.90;;;;;;4955010;29;20185;-75
2021/01/10 03:04:19;;;;;;;0.77;0.77;;;3.20;99.90;;;;;;4954725;28;20245;-76
2021/01/10 03:06:52;;;;;;;1.65;1.55;;;3.30;99.90;;;;;;4954938;29;20175;-75
2021/01/10 03:09:18;;;;;;;2.83;2.65;;;3.30;99.90;;;;;;4937785;29;20347;-77
2021/01/10 03:11:44;;;;;;;2.45;2.30;;;3.20;99.90;;;;;;4955267;29;20491;-76
2021/01/10 03:14:10;;;;;;;1.42;1.35;;;3.50;99.90;;;;;;4954834;28;20649;-78
2021/01/10 03:16:36;;;;;;;3.63;3.30;;;3.30;99.90;;;;;;4937774;29;20209;-76
2021/01/10 03:19:02;;;;;;;1.60;1.58;;;3.30;99.90;;;;;;4954828;29;20265;-76
2021/01/10 03:21:28;;;;;;;4.63;2.70;;;3.10;99.90;;;;;;4954951;29;20166;-76
2021/01/10 03:23:54;;;;;;;1.20;1.20;;;3.10;99.90;;;;;;4953499;29;20173;-76
2021/01/10 03:26:22;;;;;;;1.00;1.00;;;3.40;99.90;;;;;;4954773;28;20294;-76
2021/01/10 03:28:54;;;;;;;1.98;1.88;;;3.60;99.90;;;;;;4953489;29;20594;-75
2021/01/10 03:31:20;;;;;;;1.45;1.23;;;3.70;99.90;;;;;;4954887;29;20507;-75
2021/01/10 03:33:48;;;;;;;5.03;1.67;;;3.60;99.90;;;;;;4954722;29;20746;-76
2021/01/10 03:36:14;;;;;;;1.38;1.30;;;3.60;99.90;;;;;;4954536;28;20186;-75
2021/01/10 03:38:40;;;;;;;2.67;1.35;;;3.50;99.90;;;;;;4954658;29;20170;-76
2021/01/10 03:41:06;;;;;;;3.00;1.65;;;3.70;99.90;;;;;;4954733;29;20639;-77
2021/01/10 03:43:38;;;;;;;1.27;1.27;;;3.70;99.90;;;;;;4957682;28;20527;-76
2021/01/10 03:46:04;;;;;;;0.82;0.82;;;3.60;99.90;;;;;;4940949;29;20717;-75
2021/01/10 03:48:38;;;;;;;1.42;1.33;;;3.70;99.90;;;;;;4958192;29;20206;-76
2021/01/10 03:51:06;;;;;;;1.92;1.83;;;3.70;99.90;;;;;;4958297;29;20529;-75
2021/01/10 03:53:37;;;;;;;1.55;0.82;;;3.70;99.90;;;;;;4958191;29;20579;-75
2021/01/10 03:56:12;;;;;;;7.13;2.28;;;3.40;99.90;;;;;;4958137;28;20186;-75
2021/01/10 03:58:37;;;;;;;1.00;1.00;;;3.10;99.90;;;;;;4958144;29;20158;-75
2021/01/10 04:01:03;;;;;;;10.63;2.42;;;2.90;99.90;;;;;;4958012;29;20251;-75
2021/01/10 04:03:29;;;;;;;0.30;0.30;;;3.10;99.90;;;;;;4957901;29;20250;-75
2021/01/10 04:05:54;;;;;;;1.00;1.00;;;2.90;99.90;;;;;;4957975;28;20639;-74
2021/01/10 04:08:20;;;;;;;1.20;1.17;;;2.80;99.90;;;;;;4957938;29;20221;-74
2021/01/10 04:10:45;;;;;;;1.58;1.52;;;3.00;99.90;;;;;;4957861;29;20196;-76
2021/01/10 04:13:11;;;;;;;0.95;0.95;;;2.80;99.90;;;;;;4957725;29;20206;-74
2021/01/10 04:15:36;;;;;;;1.10;1.10;;;2.80;99.90;;;;;;4957747;28;20277;-75
2021/01/10 04:18:02;;;;;;;1.65;1.52;;;2.60;99.90;;;;;;4957777;29;20179;-76
2021/01/10 04:20:28;;;;;;;1.13;1.13;;;2.80;99.90;;;;;;4957871;29;20217;-76
2021/01/10 04:22:53;;;;;;;1.77;1.67;;;3.00;99.90;;;;;;4957636;29;20174;-77
2021/01/10 04:25:19;;;;;;;1.20;1.20;;;2.80;99.90;;;;;;4957682;28;20330;-75
2021/01/10 04:27:44;;;;;;;3.03;2.75;;;3.10;99.90;;;;;;4957594;29;20241;-75
2021/01/10 04:30:10;;;;;;;6.57;3.30;;;2.90;99.90;;;;;;4957551;29;20185;-75
2021/01/10 04:32:36;;;;;;;1.15;1.15;;;3.10;99.90;;;;;;4957527;29;20174;-76
2021/01/10 04:35:02;;;;;;;0.88;0.88;;;3.30;99.90;;;;;;4957363;28;20241;-75
2021/01/10 04:37:30;;;;;;;0.65;0.40;;;3.50;99.90;;;;;;4957491;29;20174;-75
2021/01/10 04:39:55;;;;;;;2.33;2.20;;;3.40;99.90;;;;;;4940202;29;20537;-75
2021/01/10 04:42:22;;;;;;;2.08;1.98;;;3.60;99.90;;;;;;4957378;29;20158;-76
2021/01/10 04:44:48;;;;;;;1.63;1.58;;;3.50;99.90;;;;;;4940096;29;20191;-75
2021/01/10 04:47:14;;;;;;;1.58;1.50;;;3.50;99.90;;;;;;4939840;29;20210;-75
2021/01/10 04:49:40;;;;;;;1.33;1.33;;;3.70;99.90;;;;;;4957346;29;20198;-76
2021/01/10 04:52:07;;;;;;;1.10;1.10;;;3.40;99.90;;;;;;4940086;29;20214;-76
2021/01/10 04:54:39;;;;;;;2.17;0.95;;;3.40;99.90;;;;;;4956214;28;20195;-77
2021/01/10 04:57:10;;;;;;;2.20;1.70;;;3.70;99.90;;;;;;4939856;29;20230;-76
2021/01/10 04:59:36;;;;;;;1.88;1.77;;;3.70;99.90;;;;;;4956966;29;20167;-75
2021/01/10 05:02:06;;;;;;;1.10;1.10;;;3.80;99.90;;;;;;4956947;29;20159;-76
2021/01/10 05:04:32;;;;;;;1.17;1.13;;;3.70;99.90;;;;;;4956659;28;20214;-76
2021/01/10 05:06:59;;;;;;;2.53;2.35;;;4.00;99.90;;;;;;4957000;29;20741;-76
2021/01/10 05:09:25;;;;;;;1.33;1.33;;;3.90;99.90;;;;;;4956758;29;20186;-75
2021/01/10 05:11:51;;;;;;;1.23;0.75;;;3.80;99.90;;;;;;4956788;29;20186;-76
2021/01/10 05:14:16;;;;;;;1.05;1.00;;;3.90;99.90;;;;;;4956764;28;20197;-75
2021/01/10 05:16:42;;;;;;;5.00;2.92;;;3.80;99.90;;;;;;4956722;29;20166;-75
2021/01/10 05:19:08;;;;;;;2.47;2.38;;;3.90;99.90;;;;;;4956777;29;20527;-76
2021/01/10 05:21:33;;;;;;;1.20;1.10;;;4.00;99.90;;;;;;4956810;29;20155;-76
2021/01/10 05:23:59;;;;;;;0.52;0.52;;;4.10;99.90;;;;;;4956630;29;20166;-76
2021/01/10 05:26:33;;;;;;;1.33;1.33;;;3.70;99.90;;;;;;4956611;28;20201;-76
2021/01/10 05:29:05;;;;;;;1.95;1.85;;;3.30;99.90;;;;;;4956509;29;20619;-78
2021/01/10 05:31:35;;;;;;;1.80;1.65;;;3.50;99.90;;;;;;4956503;29;20155;-76
2021/01/10 05:34:01;;;;;;;0.80;0.80;;;3.70;99.90;;;;;;4939108;29;20183;-76
2021/01/10 05:36:35;;;;;;;2.83;2.28;;;3.60;99.90;;;;;;4939048;29;20187;-75
2021/01/10 05:39:21;;;;;;;1.85;1.27;;;3.30;99.90;;;;;;4956254;29;20171;-76
2021/01/10 05:42:04;;;;;;;1.58;1.25;;;3.50;99.90;;;;;;4956297;29;20155;-76
2021/01/10 05:44:39;;;;;;;1.48;1.02;;;3.70;99.90;;;;;;4956145;28;20618;-75
2021/01/10 05:47:07;;;;;;;1.33;1.02;;;4.00;99.90;;;;;;4956087;29;20201;-75
2021/01/10 05:49:33;;;;;;;1.25;1.15;;;3.90;99.90;;;;;;4956109;29;20171;-76
2021/01/10 05:52:07;;;;;;;1.65;1.55;;;4.10;99.90;;;;;;4956131;29;20187;-76
2021/01/10 05:54:43;;;;;;;0.98;0.98;;;4.20;99.90;;;;;;4955955;28;20218;-76
2021/01/10 05:57:16;;;;;;;2.25;2.15;;;4.20;99.90;;;;;;4956046;29;20592;-76
2021/01/10 05:59:44;;;;;;;1.15;1.15;;;4.10;99.90;;;;;;4938624;29;20181;-76
2021/01/10 06:02:10;;;;;;;1.05;0.95;;;3.90;99.90;;;;;;4955930;29;20170;-75
2021/01/10 06:04:36;;;;;;;2.15;2.05;;;4.00;99.90;;;;;;4953333;28;20237;-76
2021/01/10 06:07:03;;;;;;;1.20;1.20;;;4.10;99.90;;;;;;4955532;29;20206;-76
2021/01/10 06:09:43;;;;;;;0.93;0.93;;;3.80;99.90;;;;;;4955899;28;20171;-77
2021/01/10 06:12:19;;;;;;;0.70;0.70;;;3.70;99.90;;;;;;4954440;29;20674;-76
2021/01/10 06:14:45;;;;;;;0.80;0.80;;;3.80;99.90;;;;;;4955535;28;20201;-76
2021/01/10 06:17:15;;;;;;;1.15;1.05;;;3.80;99.90;;;;;;4970406;28;20171;-76
2021/01/10 06:19:43;;;;;;;1.05;1.05;;;3.80;99.90;;;;;;4955552;28;20167;-77
2021/01/10 06:22:17;;;;;;;5.22;1.75;;;4.00;99.90;;;;;;4955609;28;20162;-77
2021/01/10 06:24:47;;;;;;;3.72;2.05;;;3.70;99.90;;;;;;4955565;28;20253;-76
2021/01/10 06:27:22;;;;;;;4.05;2.10;;;3.40;99.90;;;;;;4955445;28;20757;-76
2021/01/10 06:29:54;;;;;;;1.42;1.38;;;3.50;99.90;;;;;;4970441;28;20274;-76
2021/01/10 06:32:23;;;;;;;1.40;1.25;;;3.50;99.90;;;;;;4955408;28;20155;-76
2021/01/10 06:34:50;;;;;;;2.13;1.98;;;3.50;99.90;;;;;;4955281;28;20194;-77
2021/01/10 06:37:16;;;;;;;8.38;2.63;;;3.30;99.90;;;;;;4955305;28;20631;-76
2021/01/10 06:39:48;;;;;;;1.52;1.52;;;3.40;99.90;;;;;;4955363;28;20170;-78
2021/01/10 06:42:15;;;;;;;3.10;1.55;;;3.40;99.90;;;;;;4955217;28;20159;-77
2021/01/10 06:44:46;;;;;;;0.52;0.52;;;3.20;99.90;;;;;;4955200;28;20219;-77
2021/01/10 06:47:17;;;;;;;2.22;2.13;;;3.20;99.90;;;;;;4953739;29;20273;-77
2021/01/10 06:49:42;;;;;;;1.23;1.23;;;3.10;99.90;;;;;;4955177;28;20170;-77
2021/01/10 06:52:09;;;;;;;2.75;2.13;;;3.00;99.90;;;;;;4955581;28;20707;-77
2021/01/10 06:54:44;;;;;;;1.10;1.10;;;2.90;99.90;;;;;;4955096;28;20206;-77
2021/01/10 06:57:10;;;;;;;0.88;0.88;;;3.00;99.90;;;;;;4955250;28;20170;-77
2021/01/10 07:00:08;;;;;;;2.92;2.63;;;3.20;99.90;;;;;;4955246;28;20166;-79
2021/01/10 07:03:03;;;;;;;1.35;1.25;;;3.10;99.90;;;;;;4954858;28;20165;-78
2021/01/10 07:06:13;;;;;;;2.47;1.38;;;3.10;99.90;;;;;;4948539;28;20199;-79
2021/01/10 07:08:55;;;;;;;1.75;1.65;;;2.90;99.90;;;;;;4954871;29;20635;-79
2021/01/10 07:11:20;;;;;;;2.47;1.58;;;3.10;99.90;;;;;;4954850;29;20178;-79
2021/01/10 07:13:55;;;;;;;1.33;1.33;;;3.20;99.90;;;;;;4954950;29;20222;-79
2021/01/10 07:16:22;;;;;;;4.07;2.63;;;3.00;99.90;;;;;;4954746;28;20185;-79
2021/01/10 07:18:52;;;;;;;1.83;1.73;;;2.80;99.90;;;;;;4958365;29;20170;-79
2021/01/10 07:21:46;;;;;;;0.95;0.95;;;2.90;99.90;;;;;;4958718;29;20265;-79
2021/01/10 07:24:20;;;;;;;1.20;1.17;;;2.80;99.90;;;;;;4958670;28;20189;-79
2021/01/10 07:26:52;;;;;;;2.53;1.75;;;2.90;99.90;;;;;;4958635;29;20233;-79
2021/01/10 07:29:34;;;;;;;0.63;0.63;;;2.80;99.90;;;;;;4958532;29;20627;-78
2021/01/10 07:32:02;;;;;;;2.65;1.58;;;2.90;99.90;;;;;;4958665;29;20197;-79
2021/01/10 07:34:29;;;;;;;1.92;1.40;;;2.90;99.90;;;;;;4958558;28;20190;-77
2021/01/10 07:37:00;;;;;;;1.23;1.23;;;2.80;99.90;;;;;;4958376;29;20177;-79
2021/01/10 07:39:27;;;;;;;2.30;1.75;;;2.70;99.90;;;;;;4958403;29;20177;-79
2021/01/10 07:42:13;;;;;;;3.05;2.80;;;2.80;99.90;;;;;;4958394;29;20207;-81
2021/01/10 07:44:53;;;;;;;3.10;2.03;;;2.80;99.90;;;;;;4958432;28;20186;-78
2021/01/10 07:47:43;;;;;;;2.47;2.38;;;2.90;99.90;;;;;;4958179;29;20235;-74
2021/01/10 07:50:20;;;;;;;0.73;0.73;;;3.20;99.90;;;;;;4958378;29;20645;-77
2021/01/10 07:52:57;;;;;;;0.57;0.57;;;3.00;99.90;;;;;;4958366;29;20628;-76
2021/01/10 07:55:30;;;;;;;0.60;0.60;;;3.10;99.90;;;;;;4973260;28;20197;-76
2021/01/10 07:58:02;;;;;;;2.67;2.50;;;3.10;99.90;;;;;;4972587;28;20181;-76
2021/01/10 08:00:35;;;;;;;0.98;0.98;;;3.00;99.90;;;;;;4965476;28;20564;-76
2021/01/10 08:03:16;;;;;;;2.15;2.05;;;2.90;99.90;;;;;;4957682;29;20230;-76
2021/01/10 08:05:54;;;;;;;0.93;0.93;;;2.90;99.90;;;;;;4958004;28;20197;-75
2021/01/10 08:08:23;;;;;;;2.08;1.95;;;2.70;99.90;;;;;;4957952;29;20253;-75
2021/01/10 08:10:56;;;;;;;1.98;1.67;;;2.40;99.90;;;;;;4956589;29;20182;-75
2021/01/10 08:13:44;;;;;;;1.42;1.33;;;2.30;99.90;;;;;;4957840;29;20175;-76
2021/01/10 08:16:28;;;;;;;2.40;2.30;;;2.40;99.90;;;;;;4957604;28;20190;-75
2021/01/10 08:18:53;;;;;;;0.88;0.88;;;2.70;99.90;;;;;;4957671;29;20159;-75
2021/01/10 08:21:19;;;;;;;3.20;1.30;;;2.80;99.90;;;;;;4956253;29;20642;-75
2021/01/10 08:23:53;;;;;;;3.58;1.95;;;2.70;99.90;;;;;;4959307;28;20210;-76
2021/01/10 08:26:19;;;;;;;1.23;1.23;;;2.40;99.90;;;;;;4921249;29;20235;-75
2021/01/10 08:28:50;;;;;;;1.33;1.33;;;2.30;99.90;;;;;;4936951;29;20192;-77
2021/01/10 08:31:19;;;;;;;1.50;1.40;;;2.20;99.90;;;;;;4938401;29;20314;-76
2021/01/10 08:33:45;;;;;;;1.85;1.75;;;2.40;99.90;;;;;;4938341;29;20179;-75
2021/01/10 08:36:19;;;;;;;0.82;0.82;;;2.40;99.90;;;;;;4921027;29;20203;-76
2021/01/10 08:38:50;;;;;;;1.15;1.15;;;2.20;99.90;;;;;;4938669;29;20175;-75
2021/01/10 08:41:44;;;;;;;2.07;1.97;;;2.10;99.90;;;;;;4938037;29;20175;-76
2021/01/10 08:44:19;;;;;;;2.38;2.17;;;2.10;99.90;;;;;;4937859;29;20183;-77
2021/01/10 08:46:47;;;;;;;2.07;1.97;;;2.30;99.90;;;;;;4937871;29;20171;-76
2021/01/10 08:49:17;;;;;;;1.92;1.83;;;2.20;99.90;;;;;;4937960;29;20167;-77
2021/01/10 08:51:43;;;;;;;2.10;1.90;;;2.10;99.90;;;;;;4938051;29;20191;-76
2021/01/10 08:54:14;;;;;;;1.63;1.52;;;2.30;99.90;;;;;;4937950;29;20176;-76
2021/01/10 08:56:41;;;;;;;2.72;2.53;;;2.70;99.90;;;;;;4937890;29;20199;-76
2021/01/10 08:59:08;;;;;;;1.27;1.27;;;2.80;99.90;;;;;;4937715;29;20163;-76
2021/01/10 09:01:34;;;;;;;1.75;1.65;;;2.80;99.90;;;;;;4937683;29;20627;-73
2021/01/10 09:04:12;;;;;;;0.75;0.75;;;2.90;99.90;;;;;;4937664;29;20254;-75
2021/01/10 09:06:41;;;;;;;1.75;1.20;;;3.10;99.90;;;;;;4937756;29;20171;-75
2021/01/10 09:09:24;;;;;;;2.85;2.17;;;3.40;99.90;;;;;;4920481;29;20180;-78
2021/01/10 09:12:08;;;;;;;1.95;1.85;;;3.60;99.90;;;;;;4937220;29;20547;-76
2021/01/10 09:14:45;;;;;;;2.92;2.78;;;3.80;99.90;;;;;;4937213;29;20194;-75
2021/01/10 09:17:14;;;;;;;1.23;1.23;;;3.90;99.90;;;;;;4937339;29;20174;-74
2021/01/10 09:19:41;;;;;;;2.35;1.67;;;3.80;99.90;;;;;;4937311;29;20167;-73
2021/01/10 09:22:07;;;;;;;1.13;1.08;;;3.80;99.90;;;;;;4937141;29;20191;-74
2021/01/10 09:24:35;;;;;;;14.02;1.40;;;3.90;99.90;;;;;;4937055;29;20238;-76
2021/01/10 09:27:12;;;;;;;1.85;1.67;;;4.10;99.90;;;;;;4937082;29;20167;-72
2021/01/10 09:29:41;;;;;;;1.45;1.35;;;4.20;99.90;;;;;;4937091;29;20802;-72
2021/01/10 09:32:09;;;;;;;0.80;0.80;;;4.30;99.90;;;;;;4936164;29;20247;-73
2021/01/10 09:34:35;;;;;;;1.67;1.58;;;4.30;99.90;;;;;;4936283;29;20775;-74
2021/01/10 09:37:05;;;;;;;0.60;0.60;;;4.20;99.90;;;;;;4936766;29;20280;-74
2021/01/10 09:39:44;;;;;;;1.52;1.50;;;4.40;99.90;;;;;;4936567;29;20620;-75
2021/01/10 09:42:11;;;;;;;1.38;1.27;;;4.40;99.90;;;;;;4936854;29;20174;-75
2021/01/10 09:44:37;;;;;;;1.52;1.42;;;4.40;99.90;;;;;;4936578;29;20235;-76
2021/01/10 09:47:03;;;;;;;3.40;3.15;;;4.40;99.90;;;;;;4936558;29;20179;-75
2021/01/10 09:49:34;;;;;;;2.20;2.10;;;4.50;99.90;;;;;;4936691;29;20246;-76
2021/01/10 09:52:06;;;;;;;1.25;1.13;;;4.60;99.90;;;;;;4936835;29;20158;-74
2021/01/10 09:54:35;;;;;;;3.35;2.00;;;4.60;99.90;;;;;;4936754;29;20223;-78
2021/01/10 09:57:22;;;;;;;0.98;0.98;;;4.60;99.90;;;;;;4936563;29;20201;-74
2021/01/10 10:00:03;;;;;;;0.88;0.88;;;4.60;99.90;;;;;;4919147;29;20175;-75
2021/01/10 10:02:37;;;;;;;0.98;0.98;;;4.60;99.90;;;;;;4936360;29;20159;-75
2021/01/10 10:05:22;;;;;;;5.78;1.90;;;4.60;99.90;;;;;;4936220;29;20217;-75
2021/01/10 10:07:50;;;;;;;1.10;1.00;;;4.20;99.90;;;;;;4936341;29;20207;-75
2021/01/10 10:10:25;;;;;;;5.82;2.60;;;4.20;99.90;;;;;;4934728;29;20171;-78
2021/01/10 10:13:09;;;;;;;2.80;1.25;;;4.10;99.90;;;;;;4919246;29;20202;-77
2021/01/10 10:15:40;;;;;;;5.80;1.67;;;4.20;99.90;;;;;;4919593;29;20538;-75
2021/01/10 10:18:06;;;;;;;4.63;3.90;;;4.50;99.90;;;;;;4936312;29;20634;-76
2021/01/10 10:20:33;;;;;;;0.57;0.57;;;4.40;99.90;;;;;;4919309;29;20223;-79
2021/01/10 10:23:15;;;;;;;1.40;1.35;;;4.60;99.90;;;;;;4936280;29;20239;-77
2021/01/10 10:25:49;;;;;;;1.00;1.00;;;4.60;99.90;;;;;;4936559;29;20198;-75
2021/01/10 10:28:15;;;;;;;2.67;2.35;;;4.40;99.90;;;;;;4935871;29;20269;-76
2021/01/10 10:30:42;;;;;;;3.28;2.13;;;4.50;99.90;;;;;;4934949;29;20266;-76
2021/01/10 10:33:08;;;;;;;6.03;2.85;;;4.70;99.90;;;;;;4936061;29;20202;-76
2021/01/10 10:35:34;;;;;;;2.40;2.10;;;4.80;99.90;;;;;;4936027;29;20195;-74
2021/01/10 10:38:00;;;;;;;1.98;1.88;;;4.60;99.90;;;;;;4919019;29;20238;-75
2021/01/10 10:40:26;;;;;;;2.33;2.10;;;4.60;99.90;;;;;;4935891;29;20167;-77
2021/01/10 10:42:52;;;;;;;2.03;1.85;;;4.50;99.90;;;;;;4936025;29;20163;-77
2021/01/10 10:45:18;;;;;;;2.25;2.10;;;4.40;99.90;;;;;;4935970;29;20548;-76
2021/01/10 10:47:44;;;;;;;2.80;2.60;;;4.50;99.90;;;;;;4935924;29;20238;-77
2021/01/10 10:50:10;;;;;;;2.63;2.47;;;4.50;99.90;;;;;;4918846;29;20223;-76
2021/01/10 10:52:36;;;;;;;5.68;1.63;;;4.70;99.90;;;;;;4934002;29;20199;-79
2021/01/10 10:55:03;;;;;;;0.80;0.80;;;4.70;99.90;;;;;;4935995;29;20612;-76
2021/01/10 10:57:29;;;;;;;1.95;1.80;;;4.90;99.90;;;;;;4934337;29;20171;-78
2021/01/10 10:59:54;;;;;;;4.47;2.47;;;4.80;99.90;;;;;;4935721;29;20210;-77
2021/01/10 11:02:24;;;;;;;1.55;1.45;;;4.90;99.90;;;;;;4935392;29;20620;-77
2021/01/10 11:04:49;;;;;;;2.70;2.35;;;5.00;99.90;;;;;;4918573;29;20558;-76
2021/01/10 11:07:16;;;;;;;0.90;0.90;;;5.00;99.90;;;;;;4935696;29;20199;-77
2021/01/10 11:09:42;;;;;;;3.47;2.08;;;5.20;99.90;;;;;;4935620;29;20624;-78
2021/01/10 11:12:11;;;;;;;2.65;2.08;;;5.30;99.90;;;;;;4935537;29;20159;-75
2021/01/10 11:14:41;;;;;;;1.35;1.35;;;5.20;99.90;;;;;;4935417;29;20194;-79
2021/01/10 11:17:08;;;;;;;6.00;2.50;;;5.10;99.90;;;;;;4935740;29;20529;-73
2021/01/10 11:19:38;;;;;;;2.08;1.92;;;5.20;99.90;;;;;;4936008;29;20257;-78
2021/01/10 11:22:05;;;;;;;1.90;1.80;;;5.10;99.90;;;;;;4935708;29;20163;-76
2021/01/10 11:24:32;;;;;;;1.13;1.02;;;5.20;99.90;;;;;;4935622;29;20192;-79
2021/01/10 11:26:58;;;;;;;2.15;1.90;;;5.30;99.90;;;;;;4934035;29;20534;-77
2021/01/10 11:29:24;;;;;;;2.28;2.17;;;5.60;99.90;;;;;;4935325;29;20168;-76
2021/01/10 11:31:50;;;;;;;1.10;1.10;;;5.60;99.90;;;;;;4935472;29;20191;-75
2021/01/10 11:34:16;;;;;;;1.38;1.15;;;5.40;99.90;;;;;;4918176;29;20253;-74
2021/01/10 11:36:51;;;;;;;1.75;1.67;;;5.20;99.90;;;;;;4935636;29;20222;-75
2021/01/10 11:39:17;;;;;;;3.83;2.85;;;5.30;99.90;;;;;;4935253;29;20619;-74
2021/01/10 11:41:45;;;;;;;2.55;2.42;;;5.40;99.90;;;;;;4935359;29;20179;-75
2021/01/10 11:44:11;;;;;;;2.53;2.00;;;5.40;99.90;;;;;;4935218;29;20172;-73
2021/01/10 11:46:40;;;;;;;4.07;2.80;;;5.30;99.90;;;;;;4935401;29;20171;-74
2021/01/10 11:49:05;;;;;;;2.83;2.58;;;5.30;99.90;;;;;;4935308;29;20647;-74
2021/01/10 11:51:31;;;;;;;2.47;1.42;;;5.60;99.90;;;;;;4935190;29;20246;-74
2021/01/10 11:53:56;;;;;;;9.38;1.92;;;5.50;99.90;;;;;;4935123;29;20258;-74
2021/01/10 11:56:22;;;;;;;3.35;2.05;;;5.20;99.90;;;;;;4935033;29;20677;-76
2021/01/10 11:58:48;;;;;;;0.80;0.80;;;5.30;99.90;;;;;;4935308;29;20163;-76
2021/01/10 12:01:13;;;;;;;1.90;1.80;;;5.50;99.90;;;;;;4935144;29;20250;-73
2021/01/10 12:03:42;;;;;;;3.50;2.15;;;5.50;99.90;;;;;;4936421;29;20309;-74
2021/01/10 12:06:08;;;;;;;1.83;1.70;;;5.60;99.90;;;;;;4938656;29;20305;-77
2021/01/10 12:08:33;;;;;;;1.10;1.10;;;5.60;99.90;;;;;;4920960;29;20254;-77
2021/01/10 12:10:59;;;;;;;0.40;0.40;;;5.30;99.90;;;;;;4921638;29;20250;-75
2021/01/10 12:13:25;;;;;;;0.95;0.95;;;5.10;99.90;;;;;;4921395;29;20619;-74
2021/01/10 12:15:51;;;;;;;2.35;1.50;;;5.00;99.90;;;;;;4938098;29;20229;-77
2021/01/10 12:18:17;;;;;;;5.18;2.78;;;5.10;99.90;;;;;;4937768;29;20160;-75
2021/01/10 12:20:43;;;;;;;1.90;1.80;;;5.10;99.90;;;;;;4938344;29;20178;-74
2021/01/10 12:23:09;;;;;;;1.40;1.15;;;5.20;99.90;;;;;;4938590;29;20168;-75
2021/01/10 12:25:34;;;;;;;6.18;2.88;;;5.00;99.90;;;;;;4921186;29;20203;-75
2021/01/10 12:28:00;;;;;;;1.45;1.40;;;5.10;99.90;;;;;;4938142;29;20199;-77
2021/01/10 12:30:26;;;;;;;4.32;2.92;;;5.10;99.90;;;;;;4938239;29;20183;-75
2021/01/10 12:32:53;;;;;;;2.22;2.03;;;4.80;99.90;;;;;;4938377;29;20174;-75
2021/01/10 12:35:19;;;;;;;3.25;1.25;;;4.80;99.90;;;;;;4938084;29;20195;-75
2021/01/10 12:37:47;;;;;;;1.02;1.02;;;4.80;99.90;;;;;;4937950;29;20179;-76
2021/01/10 12:40:13;;;;;;;2.28;1.67;;;5.10;99.90;;;;;;4938267;29;20167;-76
2021/01/10 12:42:39;;;;;;;2.92;2.20;;;5.20;99.90;;;;;;4921010;29;20159;-76
2021/01/10 12:45:10;;;;;;;1.67;1.58;;;5.10;99.90;;;;;;4938021;29;20287;-75
2021/01/10 12:47:36;;;;;;;5.82;3.20;;;4.80;99.90;;;;;;4920658;29;20306;-76
2021/01/10 12:50:05;;;;;;;7.97;2.63;;;4.90;99.90;;;;;;4938077;29;20242;-75
2021/01/10 12:52:31;;;;;;;3.40;2.88;;;5.00;99.90;;;;;;4937973;29;20214;-76
2021/01/10 12:54:56;;;;;;;0.85;0.85;;;5.10;99.90;;;;;;4920719;29;20290;-75
2021/01/10 12:57:25;;;;;;;4.43;1.30;;;4.90;99.90;;;;;;4937757;29;20175;-77
2021/01/10 12:59:50;;;;;;;3.53;1.35;;;5.10;99.90;;;;;;4920711;29;20216;-75
2021/01/10 13:02:16;;;;;;;2.00;1.90;;;5.20;99.90;;;;;;4936358;29;20191;-75
2021/01/10 13:04:41;;;;;;;1.73;1.38;;;5.20;99.90;;;;;;4937347;29;20227;-78
2021/01/10 13:07:07;;;;;;;1.42;1.33;;;5.20;99.90;;;;;;4971638;23;20304;-80
2021/01/10 13:09:35;;;;;;;3.22;2.40;;;5.30;99.90;;;;;;4975802;28;20189;-77